createdAt,value
2019-03-06T00:00:33.574Z,5.33
2019-03-06T00:01:37.159Z,2.90
2019-03-06T00:02:40.580Z,2.02
2019-03-06T00:03:44.079Z,5.28
2019-03-06T00:04:47.506Z,5.75
2019-03-06T00:05:51.163Z,3.98
2019-03-06T00:06:54.693Z,3.75
2019-03-06T00:07:58.193Z,7.00
2019-03-06T00:09:01.648Z,2.35
2019-03-06T00:10:23.065Z,1.65
2019-03-06T00:11:26.500Z,3.02
2019-03-06T00:12:30.017Z,4.12
2019-03-06T00:13:33.437Z,3.02
2019-03-06T00:14:36.934Z,1.75
2019-03-06T00:15:40.488Z,1.62
2019-03-06T00:16:44.063Z,3.95
2019-03-06T00:17:47.654Z,1.25
2019-03-06T00:18:51.322Z,3.95
2019-03-06T00:19:54.796Z,2.40
2019-03-06T00:20:58.193Z,1.95
2019-03-06T00:22:01.619Z,1.92
2019-03-06T00:23:05.146Z,2.15
2019-03-06T00:24:08.707Z,1.40
2019-03-06T00:25:12.394Z,3.42
2019-03-06T00:26:15.818Z,1.67
2019-03-06T00:27:19.235Z,1.57
2019-03-06T00:28:22.676Z,3.35
2019-03-06T00:29:26.121Z,2.65
2019-03-06T00:30:29.544Z,8.13
2019-03-06T00:31:32.970Z,1.67
2019-03-06T00:32:36.389Z,4.60
2019-03-06T00:33:39.828Z,3.65
2019-03-06T00:34:43.418Z,4.70
2019-03-06T00:35:48.757Z,2.15
2019-03-06T00:36:52.421Z,3.83
2019-03-06T00:37:55.912Z,9.28
2019-03-06T00:38:59.490Z,4.37
2019-03-06T00:40:04.548Z,5.15
2019-03-06T00:41:12.699Z,3.30
2019-03-06T00:42:16.151Z,7.00
2019-03-06T00:43:19.716Z,1.92
2019-03-06T00:44:23.158Z,2.08
2019-03-06T00:45:26.651Z,4.35
2019-03-06T00:46:30.078Z,7.17
2019-03-06T00:47:33.650Z,2.30
2019-03-06T00:48:37.064Z,3.75
2019-03-06T00:49:40.531Z,4.53
2019-03-06T00:50:43.982Z,2.35
2019-03-06T00:51:47.470Z,5.08
2019-03-06T00:52:50.952Z,3.10
2019-03-06T00:53:54.548Z,2.17
2019-03-06T00:54:58.291Z,2.42
2019-03-06T00:56:01.781Z,2.75
2019-03-06T00:57:05.209Z,4.67
2019-03-06T00:58:08.650Z,4.08
2019-03-06T00:59:12.134Z,4.55
2019-03-06T01:00:19.569Z,3.83
2019-03-06T01:01:23.046Z,5.37
2019-03-06T01:02:26.536Z,3.62
2019-03-06T01:03:29.955Z,3.37
2019-03-06T01:04:33.373Z,4.17
2019-03-06T01:05:36.818Z,3.05
2019-03-06T01:06:40.311Z,4.97
2019-03-06T01:07:43.809Z,5.72
2019-03-06T01:08:47.321Z,4.35
2019-03-06T01:09:50.750Z,4.28
2019-03-06T01:10:54.219Z,3.10
2019-03-06T01:11:57.704Z,2.42
2019-03-06T01:13:01.391Z,8.03
2019-03-06T01:14:04.952Z,4.90
2019-03-06T01:15:10.622Z,4.50
2019-03-06T01:16:14.221Z,4.95
2019-03-06T01:17:17.715Z,8.85
2019-03-06T01:18:21.206Z,8.10
2019-03-06T01:19:24.703Z,6.03
2019-03-06T01:20:28.264Z,6.83
2019-03-06T01:21:31.791Z,3.10
2019-03-06T01:22:35.301Z,4.45
2019-03-06T01:23:38.812Z,5.72
2019-03-06T01:24:42.226Z,3.08
2019-03-06T01:25:45.724Z,12.82
2019-03-06T01:26:49.168Z,4.12
2019-03-06T01:27:52.613Z,2.62
2019-03-06T01:28:56.035Z,4.70
2019-03-06T01:29:59.537Z,6.40
2019-03-06T01:31:03.130Z,6.30
2019-03-06T01:32:06.718Z,8.93
2019-03-06T01:33:27.732Z,6.35
2019-03-06T01:34:35.585Z,7.12
2019-03-06T01:35:46.107Z,6.80
2019-03-06T01:36:51.240Z,4.95
2019-03-06T01:38:12.388Z,3.87
2019-03-06T01:39:17.462Z,3.50
2019-03-06T01:40:38.730Z,4.10
2019-03-06T01:41:43.881Z,3.10
2019-03-06T01:42:48.959Z,5.62
2019-03-06T01:43:56.454Z,3.60
2019-03-06T01:44:59.884Z,3.27
2019-03-06T01:46:03.370Z,3.55
2019-03-06T01:47:06.792Z,3.42
2019-03-06T01:48:10.226Z,9.75
2019-03-06T01:49:13.669Z,6.35
2019-03-06T01:50:17.168Z,4.22
2019-03-06T01:51:20.844Z,7.80
2019-03-06T01:52:24.260Z,4.58
2019-03-06T01:53:27.690Z,5.05
2019-03-06T01:54:31.272Z,5.97
2019-03-06T01:55:37.115Z,5.30
2019-03-06T01:56:40.535Z,9.38
2019-03-06T01:57:44.026Z,5.65
2019-03-06T01:58:47.450Z,5.12
2019-03-06T01:59:50.894Z,6.37
2019-03-06T02:00:55.041Z,5.78
2019-03-06T02:01:58.531Z,6.40
2019-03-06T02:03:02.019Z,6.92
2019-03-06T02:04:05.506Z,3.98
2019-03-06T02:05:11.291Z,12.65
2019-03-06T02:06:14.816Z,11.70
2019-03-06T02:07:18.414Z,32.00
2019-03-06T02:08:21.922Z,5.58
2019-03-06T02:09:27.716Z,6.47
2019-03-06T02:10:32.371Z,9.23
2019-03-06T02:11:35.965Z,15.35
2019-03-06T02:12:39.528Z,7.70
2019-03-06T02:13:42.933Z,5.45
2019-03-06T02:14:46.429Z,5.92
2019-03-06T02:15:49.941Z,6.22
2019-03-06T02:16:53.464Z,6.30
2019-03-06T02:17:56.892Z,7.03
2019-03-06T02:19:01.348Z,8.70
2019-03-06T02:20:07.512Z,7.17
2019-03-06T02:21:11.142Z,7.15
2019-03-06T02:22:14.630Z,14.18
2019-03-06T02:23:18.143Z,10.98
2019-03-06T02:24:21.563Z,9.95
2019-03-06T02:25:25.057Z,6.45
2019-03-06T02:26:28.578Z,5.28
2019-03-06T02:27:31.998Z,6.90
2019-03-06T02:28:35.570Z,7.00
2019-03-06T02:29:39.156Z,8.48
2019-03-06T02:30:42.656Z,5.87
2019-03-06T02:31:46.116Z,7.37
2019-03-06T02:32:49.714Z,5.67
2019-03-06T02:33:53.187Z,6.97
2019-03-06T02:34:56.565Z,9.05
2019-03-06T02:36:00.054Z,7.40
2019-03-06T02:37:03.560Z,5.78
2019-03-06T02:38:07.013Z,12.20
2019-03-06T02:39:10.775Z,6.35
2019-03-06T02:40:17.342Z,7.87
2019-03-06T02:41:20.765Z,6.60
2019-03-06T02:42:24.210Z,10.20
2019-03-06T02:43:27.665Z,7.95
2019-03-06T02:44:31.093Z,9.70
2019-03-06T02:45:34.666Z,6.78
2019-03-06T02:46:38.165Z,6.40
2019-03-06T02:47:41.624Z,5.85
2019-03-06T02:48:45.050Z,8.33
2019-03-06T02:49:48.482Z,6.70
2019-03-06T02:50:51.902Z,7.78
2019-03-06T02:51:55.328Z,6.92
2019-03-06T02:52:58.799Z,8.85
2019-03-06T02:54:02.246Z,8.03
2019-03-06T02:55:07.918Z,7.92
2019-03-06T02:56:11.336Z,9.33
2019-03-06T02:57:14.798Z,13.05
2019-03-06T02:58:19.943Z,8.78
2019-03-06T02:59:27.689Z,7.58
2019-03-06T03:00:35.390Z,8.63
2019-03-06T03:01:40.441Z,8.05
2019-03-06T03:02:45.512Z,6.78
2019-03-06T03:04:06.557Z,7.25
2019-03-06T03:05:14.883Z,12.82
2019-03-06T03:06:19.962Z,10.85
2019-03-06T03:07:23.449Z,10.25
2019-03-06T03:08:26.903Z,15.68
2019-03-06T03:09:30.357Z,10.63
2019-03-06T03:10:33.863Z,10.03
2019-03-06T03:11:37.573Z,8.28
2019-03-06T03:12:41.169Z,7.00
2019-03-06T03:13:44.602Z,7.15
2019-03-06T03:14:48.063Z,10.25
2019-03-06T03:15:51.525Z,7.65
2019-03-06T03:16:54.961Z,8.15
2019-03-06T03:17:58.371Z,6.72
2019-03-06T03:19:01.801Z,9.48
2019-03-06T03:20:07.387Z,7.87
2019-03-06T03:21:10.807Z,7.35
2019-03-06T03:22:14.233Z,7.67
2019-03-06T03:23:17.683Z,10.03
2019-03-06T03:24:21.095Z,8.85
2019-03-06T03:25:24.605Z,8.63
2019-03-06T03:26:28.112Z,8.73
2019-03-06T03:27:31.530Z,8.48
2019-03-06T03:28:35.250Z,10.88
2019-03-06T03:29:38.736Z,8.80
2019-03-06T03:30:42.200Z,9.13
2019-03-06T03:31:45.614Z,8.73
2019-03-06T03:32:49.024Z,8.33
2019-03-06T03:33:52.475Z,15.08
2019-03-06T03:34:56.018Z,10.55
2019-03-06T03:35:59.477Z,11.25
2019-03-06T03:37:02.927Z,18.05
2019-03-06T03:38:06.426Z,13.50
2019-03-06T03:39:09.947Z,13.93
2019-03-06T03:40:15.507Z,13.45
2019-03-06T03:41:18.954Z,11.43
2019-03-06T03:42:22.509Z,11.95
2019-03-06T03:43:25.894Z,13.32
2019-03-06T03:44:29.398Z,13.70
2019-03-06T03:45:33.150Z,10.25
2019-03-06T03:46:36.604Z,11.00
2019-03-06T03:47:40.029Z,10.93
2019-03-06T03:48:43.555Z,11.30
2019-03-06T03:49:47.006Z,13.38
2019-03-06T03:50:50.528Z,26.55
2019-03-06T03:51:53.980Z,15.75
2019-03-06T03:52:57.425Z,14.85
2019-03-06T03:54:00.950Z,14.05
2019-03-06T03:55:06.816Z,20.30
2019-03-06T03:56:10.229Z,13.13
2019-03-06T03:57:13.759Z,16.65
2019-03-06T03:58:17.428Z,13.38
2019-03-06T03:59:20.874Z,13.62
2019-03-06T04:00:24.549Z,16.77
2019-03-06T04:01:28.239Z,13.68
2019-03-06T04:02:31.763Z,12.58
2019-03-06T04:03:35.210Z,13.85
2019-03-06T04:04:38.711Z,17.85
2019-03-06T04:05:42.341Z,12.68
2019-03-06T04:06:45.930Z,18.27
2019-03-06T04:07:49.371Z,13.62
2019-03-06T04:08:52.903Z,17.98
2019-03-06T04:09:56.400Z,14.78
2019-03-06T04:10:59.858Z,13.53
2019-03-06T04:12:03.290Z,16.50
2019-03-06T04:13:06.726Z,14.45
2019-03-06T04:14:10.160Z,14.80
2019-03-06T04:15:17.811Z,20.90
2019-03-06T04:16:21.246Z,16.00
2019-03-06T04:17:24.748Z,16.35
2019-03-06T04:18:28.556Z,14.55
2019-03-06T04:19:32.064Z,14.47
2019-03-06T04:20:35.495Z,16.20
2019-03-06T04:21:38.929Z,15.40
2019-03-06T04:22:42.353Z,16.62
2019-03-06T04:23:45.813Z,16.45
2019-03-06T04:24:49.247Z,16.85
2019-03-06T04:25:52.678Z,15.38
2019-03-06T04:26:56.182Z,16.80
2019-03-06T04:27:59.611Z,12.30
2019-03-06T04:29:03.077Z,15.78
2019-03-06T04:30:11.941Z,15.75
2019-03-06T04:31:15.372Z,15.58
2019-03-06T04:32:18.823Z,14.98
2019-03-06T04:33:22.358Z,17.15
2019-03-06T04:34:25.789Z,16.67
2019-03-06T04:35:29.514Z,14.93
2019-03-06T04:36:32.997Z,15.40
2019-03-06T04:37:36.437Z,16.20
2019-03-06T04:38:39.876Z,15.45
2019-03-06T04:39:43.327Z,17.30
2019-03-06T04:40:46.849Z,18.25
2019-03-06T04:41:50.278Z,17.30
2019-03-06T04:42:53.793Z,18.90
2019-03-06T04:43:57.637Z,16.93
2019-03-06T04:45:01.099Z,15.83
2019-03-06T04:46:04.682Z,16.48
2019-03-06T04:47:08.137Z,15.03
2019-03-06T04:48:11.634Z,25.77
2019-03-06T04:49:15.074Z,18.82
2019-03-06T04:50:18.589Z,24.92
2019-03-06T04:51:22.020Z,18.37
2019-03-06T04:52:25.627Z,20.55
2019-03-06T04:53:29.053Z,15.65
2019-03-06T04:54:32.487Z,17.82
2019-03-06T04:55:35.960Z,17.05
2019-03-06T04:56:39.493Z,18.07
2019-03-06T04:57:42.928Z,20.37
2019-03-06T04:58:46.376Z,21.90
2019-03-06T04:59:49.812Z,18.25
2019-03-06T05:00:53.368Z,20.17
2019-03-06T05:01:56.797Z,15.25
2019-03-06T05:03:00.264Z,18.07
2019-03-06T05:04:03.695Z,17.82
2019-03-06T05:05:07.238Z,16.35
2019-03-06T05:06:10.730Z,17.48
2019-03-06T05:07:14.167Z,18.65
2019-03-06T05:08:17.681Z,17.20
2019-03-06T05:09:21.390Z,18.25
2019-03-06T05:10:24.838Z,16.37
2019-03-06T05:11:28.297Z,20.97
2019-03-06T05:12:31.721Z,25.00
2019-03-06T05:13:35.160Z,17.92
2019-03-06T05:14:38.591Z,16.45
2019-03-06T05:15:42.161Z,16.77
2019-03-06T05:16:59.508Z,16.90
2019-03-06T05:18:16.374Z,17.80
2019-03-06T05:19:19.880Z,17.27
2019-03-06T05:20:23.312Z,15.80
2019-03-06T05:21:26.751Z,19.92
2019-03-06T05:22:30.203Z,17.65
2019-03-06T05:23:33.653Z,18.73
2019-03-06T05:24:37.096Z,19.80
2019-03-06T05:25:40.591Z,16.15
2019-03-06T05:26:44.071Z,16.17
2019-03-06T05:27:47.589Z,16.20
2019-03-06T05:28:51.032Z,17.80
2019-03-06T05:29:54.461Z,16.25
2019-03-06T05:30:57.885Z,17.80
2019-03-06T05:32:30.008Z,17.20
2019-03-06T05:33:33.467Z,21.55
2019-03-06T05:34:36.901Z,15.63
2019-03-06T05:35:52.265Z,16.42
2019-03-06T05:37:07.739Z,15.90
2019-03-06T05:38:19.822Z,16.93
2019-03-06T05:39:23.265Z,19.67
2019-03-06T05:40:26.701Z,18.40
2019-03-06T05:41:30.195Z,21.10
2019-03-06T05:42:33.689Z,22.93
2019-03-06T05:43:37.134Z,23.65
2019-03-06T05:44:40.594Z,19.07
2019-03-06T05:45:44.118Z,17.85
2019-03-06T05:46:47.559Z,14.23
2019-03-06T05:47:50.992Z,20.08
2019-03-06T05:48:54.624Z,13.45
2019-03-06T05:49:58.257Z,15.65
2019-03-06T05:51:01.723Z,14.55
2019-03-06T05:52:05.149Z,14.18
2019-03-06T05:53:08.663Z,19.60
2019-03-06T05:54:12.185Z,11.50
2019-03-06T05:55:15.638Z,10.35
2019-03-06T05:56:19.136Z,15.65
2019-03-06T05:57:22.569Z,15.15
2019-03-06T05:58:25.998Z,16.87
2019-03-06T05:59:29.445Z,13.48
2019-03-06T06:00:32.871Z,12.40
2019-03-06T06:01:36.304Z,17.02
2019-03-06T06:02:39.747Z,11.35
2019-03-06T06:03:43.200Z,15.45
2019-03-06T06:04:46.674Z,15.70
2019-03-06T06:05:50.101Z,11.20
2019-03-06T06:06:53.702Z,20.37
2019-03-06T06:07:57.210Z,16.23
2019-03-06T06:09:00.638Z,14.15
2019-03-06T06:10:05.924Z,12.78
2019-03-06T06:11:09.385Z,14.83
2019-03-06T06:12:12.809Z,11.75
2019-03-06T06:13:16.236Z,18.60
2019-03-06T06:14:19.662Z,23.22
2019-03-06T06:15:23.116Z,11.20
2019-03-06T06:16:26.626Z,11.93
2019-03-06T06:17:30.072Z,16.82
2019-03-06T06:18:33.505Z,13.38
2019-03-06T06:19:36.998Z,12.80
2019-03-06T06:20:40.442Z,14.20
2019-03-06T06:21:48.319Z,17.42
2019-03-06T06:22:58.844Z,14.20
2019-03-06T06:24:03.906Z,13.90
2019-03-06T06:25:07.577Z,11.60
2019-03-06T06:26:11.021Z,15.20
2019-03-06T06:27:14.598Z,14.95
2019-03-06T06:28:18.305Z,9.45
2019-03-06T06:29:21.746Z,14.20
2019-03-06T06:30:25.170Z,13.30
2019-03-06T06:31:29.266Z,20.40
2019-03-06T06:32:33.073Z,12.65
2019-03-06T06:33:36.551Z,12.37
2019-03-06T06:34:39.972Z,16.23
2019-03-06T06:35:43.407Z,14.75
2019-03-06T06:36:46.875Z,14.20
2019-03-06T06:37:50.342Z,13.15
2019-03-06T06:38:53.767Z,13.68
2019-03-06T06:39:57.188Z,11.15
2019-03-06T06:41:00.615Z,13.13
2019-03-06T06:42:04.058Z,16.10
2019-03-06T06:43:07.510Z,14.93
2019-03-06T06:44:11.013Z,11.93
2019-03-06T06:45:17.952Z,8.98
2019-03-06T06:46:21.379Z,8.95
2019-03-06T06:47:24.835Z,9.70
2019-03-06T06:48:29.443Z,12.68
2019-03-06T06:49:32.950Z,13.90
2019-03-06T06:50:38.539Z,11.35
2019-03-06T06:52:10.668Z,8.38
2019-03-06T06:53:25.907Z,13.20
2019-03-06T06:54:44.112Z,11.55
2019-03-06T06:56:05.510Z,13.78
2019-03-06T06:57:14.666Z,10.30
2019-03-06T06:58:32.916Z,10.10
2019-03-06T06:59:48.216Z,12.73
2019-03-06T07:01:11.112Z,10.50
2019-03-06T07:02:36.780Z,12.13
2019-03-06T07:04:22.323Z,11.35
2019-03-06T07:05:32.845Z,17.42
2019-03-06T07:06:46.910Z,8.43
2019-03-06T07:08:07.792Z,12.65
2019-03-06T07:09:12.859Z,9.80
2019-03-06T07:10:33.877Z,8.58
2019-03-06T07:11:41.729Z,9.83
2019-03-06T07:12:49.341Z,10.78
2019-03-06T07:13:57.090Z,11.73
2019-03-06T07:15:04.700Z,16.45
2019-03-06T07:16:12.531Z,20.90
2019-03-06T07:17:23.105Z,22.60
2019-03-06T07:18:30.855Z,24.15
2019-03-06T07:19:35.921Z,37.20
2019-03-06T07:20:57.084Z,30.52
2019-03-06T07:22:02.222Z,16.10
2019-03-06T07:23:10.270Z,13.62
2019-03-06T07:24:21.154Z,8.30
2019-03-06T07:25:26.221Z,7.05
2019-03-06T07:26:37.203Z,22.58
2019-03-06T07:27:50.994Z,9.10
2019-03-06T07:29:02.247Z,5.53
2019-03-06T07:30:10.561Z,13.78
2019-03-06T07:31:21.938Z,9.15
2019-03-06T07:32:42.192Z,6.85
2019-03-06T07:33:49.944Z,13.05
2019-03-06T07:35:45.848Z,18.20
2019-03-06T07:36:53.811Z,9.25
2019-03-06T07:37:58.871Z,5.10
2019-03-06T07:39:03.670Z,4.62
2019-03-06T07:40:09.398Z,15.08
2019-03-06T07:41:30.742Z,11.15
2019-03-06T07:42:36.003Z,10.65
2019-03-06T07:43:52.770Z,11.00
2019-03-06T07:45:49.934Z,8.25
2019-03-06T07:47:03.719Z,15.90
2019-03-06T07:48:17.670Z,23.73
2019-03-06T07:49:22.909Z,26.90
2019-03-06T07:50:33.879Z,7.58
2019-03-06T07:51:44.635Z,4.78
2019-03-06T07:53:00.755Z,6.78
2019-03-06T07:54:06.899Z,5.75
2019-03-06T07:55:11.974Z,7.65
2019-03-06T07:56:32.907Z,17.75
2019-03-06T07:57:41.033Z,8.08
2019-03-06T07:58:54.837Z,9.60
2019-03-06T07:59:58.257Z,4.75
2019-03-06T08:01:01.688Z,7.72
2019-03-06T08:02:26.066Z,11.05
2019-03-06T08:03:29.520Z,17.42
2019-03-06T08:04:33.022Z,16.35
2019-03-06T08:05:36.451Z,17.42
2019-03-06T08:06:41.915Z,14.95
2019-03-06T08:07:46.396Z,22.20
2019-03-06T08:08:49.859Z,26.37
2019-03-06T08:09:53.425Z,28.10
2019-03-06T08:10:57.224Z,21.48
2019-03-06T08:12:08.095Z,8.63
2019-03-06T08:13:16.070Z,8.98
2019-03-06T08:14:36.838Z,4.60
2019-03-06T08:15:44.586Z,5.25
2019-03-06T08:16:49.646Z,3.58
2019-03-06T08:18:03.575Z,8.53
2019-03-06T08:19:17.426Z,12.37
2019-03-06T08:20:22.628Z,26.30
2019-03-06T08:21:30.690Z,10.88
2019-03-06T08:22:38.580Z,4.90
2019-03-06T08:23:43.729Z,8.25
2019-03-06T08:24:54.750Z,5.50
2019-03-06T08:25:58.246Z,3.72
2019-03-06T08:27:01.662Z,7.00
2019-03-06T08:28:05.266Z,5.08
2019-03-06T08:29:08.813Z,3.05
2019-03-06T08:30:12.558Z,4.75
2019-03-06T08:31:23.436Z,3.40
2019-03-06T08:32:28.893Z,2.72
2019-03-06T08:33:32.304Z,5.10
2019-03-06T08:34:35.841Z,4.58
2019-03-06T08:35:39.404Z,3.08
2019-03-06T08:36:42.906Z,5.15
2019-03-06T08:37:46.321Z,17.02
2019-03-06T08:38:49.844Z,6.47
2019-03-06T08:39:53.543Z,1.98
2019-03-06T08:41:03.860Z,6.92
2019-03-06T08:42:02.185Z,6.42
2019-03-06T08:43:08.351Z,10.98
2019-03-06T08:44:11.799Z,9.90
2019-03-06T08:45:33.330Z,5.83
2019-03-06T08:46:38.457Z,9.73
2019-03-06T08:47:55.328Z,4.33
2019-03-06T08:49:16.538Z,6.17
2019-03-06T08:50:30.404Z,14.33
2019-03-06T08:51:41.042Z,15.60
2019-03-06T08:52:46.207Z,10.98
2019-03-06T08:53:57.085Z,14.80
2019-03-06T08:55:02.250Z,18.48
2019-03-06T08:56:23.519Z,10.23
2019-03-06T08:57:28.716Z,6.83
2019-03-06T08:58:49.992Z,7.50
2019-03-06T09:00:00.990Z,34.90
2019-03-06T09:01:33.749Z,27.98
2019-03-06T09:02:50.625Z,22.42
2019-03-06T09:04:07.560Z,16.48
2019-03-06T09:05:13.867Z,16.75
2019-03-06T09:06:28.171Z,16.10
2019-03-06T09:07:39.027Z,6.70
2019-03-06T09:08:46.829Z,4.28
2019-03-06T09:10:07.574Z,9.63
2019-03-06T09:11:12.654Z,5.33
2019-03-06T09:12:20.461Z,4.50
2019-03-06T09:13:37.414Z,10.58
2019-03-06T09:14:48.327Z,5.15
2019-03-06T09:15:53.378Z,5.85
2019-03-06T09:17:10.419Z,5.58
2019-03-06T09:18:21.456Z,5.00
2019-03-06T09:19:41.645Z,5.60
2019-03-06T09:20:55.525Z,7.75
2019-03-06T09:22:00.660Z,8.90
2019-03-06T09:23:12.175Z,5.42
2019-03-06T09:24:32.928Z,17.75
2019-03-06T09:25:43.718Z,8.53
2019-03-06T09:27:00.963Z,12.45
2019-03-06T09:28:06.123Z,16.02
2019-03-06T09:29:11.328Z,15.28
2019-03-06T09:30:25.510Z,7.25
2019-03-06T09:31:30.572Z,10.43
2019-03-06T09:32:44.824Z,20.80
2019-03-06T09:34:01.648Z,2.27
2019-03-06T09:35:24.694Z,3.35
2019-03-06T09:36:38.659Z,2.25
2019-03-06T09:37:52.220Z,8.13
2019-03-06T09:39:06.055Z,5.70
2019-03-06T09:40:29.716Z,7.75
2019-03-06T09:41:43.847Z,11.50
2019-03-06T09:42:54.492Z,14.93
2019-03-06T09:44:17.671Z,21.15
2019-03-06T09:45:25.441Z,27.07
2019-03-06T09:46:32.984Z,12.68
2019-03-06T09:47:53.776Z,8.08
2019-03-06T09:49:13.557Z,8.50
2019-03-06T09:50:37.538Z,11.63
2019-03-06T09:51:51.719Z,5.58
2019-03-06T09:53:02.473Z,7.33
2019-03-06T09:54:13.650Z,5.83
2019-03-06T09:55:30.920Z,4.08
2019-03-06T09:56:51.781Z,11.50
2019-03-06T09:57:59.568Z,17.45
2019-03-06T09:59:04.647Z,25.48
2019-03-06T10:00:21.571Z,15.15
2019-03-06T10:01:38.517Z,13.45
2019-03-06T10:02:49.252Z,8.13
2019-03-06T10:03:57.092Z,12.13
2019-03-06T10:05:04.822Z,9.15
2019-03-06T10:06:25.883Z,13.35
2019-03-06T10:07:36.561Z,1.50
2019-03-06T10:08:41.766Z,8.03
2019-03-06T10:09:46.852Z,6.33
2019-03-06T10:10:57.521Z,7.90
2019-03-06T10:12:16.908Z,9.43
2019-03-06T10:13:21.975Z,6.37
2019-03-06T10:14:32.784Z,7.55
2019-03-06T10:15:56.175Z,2.85
2019-03-06T10:17:04.051Z,6.12
2019-03-06T10:18:09.128Z,3.58
2019-03-06T10:19:22.899Z,9.18
2019-03-06T10:20:26.833Z,9.00
2019-03-06T10:21:30.255Z,5.22
2019-03-06T10:22:33.683Z,4.03
2019-03-06T10:23:37.352Z,9.45
2019-03-06T10:24:40.806Z,5.62
2019-03-06T10:25:44.243Z,1.75
2019-03-06T10:26:47.751Z,2.08
2019-03-06T10:27:51.206Z,3.70
2019-03-06T10:28:54.696Z,1.75
2019-03-06T10:29:58.276Z,2.08
2019-03-06T10:31:02.805Z,6.83
2019-03-06T10:32:06.342Z,2.02
2019-03-06T10:33:10.005Z,5.65
2019-03-06T10:34:13.495Z,2.55
2019-03-06T10:35:17.121Z,7.80
2019-03-06T10:36:21.109Z,5.30
2019-03-06T10:37:24.612Z,9.60
2019-03-06T10:38:28.111Z,6.72
2019-03-06T10:39:31.636Z,14.55
2019-03-06T10:40:35.087Z,6.85
2019-03-06T10:41:38.694Z,12.18
2019-03-06T10:42:42.130Z,19.82
2019-03-06T10:43:49.098Z,32.85
2019-03-06T10:44:50.789Z,27.15
2019-03-06T10:45:54.313Z,18.05
2019-03-06T10:46:57.817Z,14.65
2019-03-06T10:48:01.495Z,1.57
2019-03-06T10:49:05.347Z,1.80
2019-03-06T10:50:12.065Z,21.10
2019-03-06T10:51:15.601Z,5.92
2019-03-06T10:52:19.292Z,19.92
2019-03-06T10:53:22.856Z,8.03
2019-03-06T10:54:26.476Z,14.05
2019-03-06T10:55:30.114Z,14.75
2019-03-06T10:56:33.880Z,9.18
2019-03-06T10:57:37.504Z,2.37
2019-03-06T10:58:41.148Z,1.98
2019-03-06T10:59:44.911Z,6.87
2019-03-06T11:00:55.271Z,8.53
2019-03-06T11:01:58.803Z,6.92
2019-03-06T11:03:02.402Z,2.20
2019-03-06T11:04:24.083Z,7.00
2019-03-06T11:05:31.810Z,1.72
2019-03-06T11:06:35.377Z,9.60
2019-03-06T11:07:38.892Z,5.37
2019-03-06T11:08:42.387Z,4.53
2019-03-06T11:09:46.057Z,4.62
2019-03-06T11:10:49.637Z,2.67
2019-03-06T11:11:53.326Z,2.65
2019-03-06T11:12:57.718Z,3.27
2019-03-06T11:14:06.149Z,7.03
2019-03-06T11:15:09.414Z,16.75
2019-03-06T11:16:13.280Z,23.22
2019-03-06T11:17:17.187Z,11.18
2019-03-06T11:18:21.148Z,7.08
2019-03-06T11:19:24.712Z,12.95
2019-03-06T11:20:35.455Z,4.08
2019-03-06T11:21:40.425Z,9.05
2019-03-06T11:22:44.014Z,3.35
2019-03-06T11:23:47.664Z,5.97
2019-03-06T11:24:51.179Z,2.92
2019-03-06T11:25:54.740Z,3.08
2019-03-06T11:26:58.318Z,8.75
2019-03-06T11:28:02.159Z,4.12
2019-03-06T11:29:08.560Z,2.20
2019-03-06T11:30:20.972Z,1.92
2019-03-06T11:31:24.607Z,4.10
2019-03-06T11:32:28.168Z,4.30
2019-03-06T11:33:31.766Z,13.30
2019-03-06T11:34:35.334Z,5.25
2019-03-06T11:35:39.475Z,6.50
2019-03-06T11:36:43.134Z,4.62
2019-03-06T11:37:46.704Z,4.65
2019-03-06T11:38:50.213Z,4.15
2019-03-06T11:39:53.793Z,7.25
2019-03-06T11:40:57.976Z,7.17
2019-03-06T11:42:01.655Z,5.00
2019-03-06T11:43:06.922Z,3.67
2019-03-06T11:44:10.613Z,9.38
2019-03-06T11:45:17.172Z,8.20
2019-03-06T11:46:20.773Z,6.62
2019-03-06T11:47:24.358Z,4.20
2019-03-06T11:48:27.852Z,2.42
2019-03-06T11:49:31.314Z,6.53
2019-03-06T11:50:40.933Z,3.45
2019-03-06T11:51:40.107Z,11.33
2019-03-06T11:52:43.841Z,3.72
2019-03-06T11:53:48.041Z,3.98
2019-03-06T11:54:51.507Z,7.20
2019-03-06T11:55:55.168Z,4.65
2019-03-06T11:56:58.662Z,4.30
2019-03-06T11:58:02.226Z,4.17
2019-03-06T11:59:05.716Z,7.75
2019-03-06T12:00:16.675Z,3.20
2019-03-06T12:01:21.832Z,9.60
2019-03-06T12:02:25.399Z,4.00
2019-03-06T12:03:29.029Z,9.23
2019-03-06T12:04:32.553Z,5.83
2019-03-06T12:05:37.639Z,4.10
2019-03-06T12:06:41.251Z,2.15
2019-03-06T12:07:44.669Z,4.70
2019-03-06T12:08:48.229Z,3.17
2019-03-06T12:09:51.740Z,4.42
2019-03-06T12:10:55.595Z,6.17
2019-03-06T12:11:59.671Z,1.98
2019-03-06T12:13:04.631Z,3.45
2019-03-06T12:14:08.261Z,9.03
2019-03-06T12:15:12.460Z,5.20
2019-03-06T12:16:18.554Z,6.83
2019-03-06T12:17:22.160Z,5.35
2019-03-06T12:18:25.672Z,1.90
2019-03-06T12:19:29.250Z,2.95
2019-03-06T12:20:33.076Z,4.20
2019-03-06T12:21:36.874Z,5.53
2019-03-06T12:22:40.453Z,4.87
2019-03-06T12:23:44.020Z,4.30
2019-03-06T12:24:47.493Z,8.55
2019-03-06T12:25:51.091Z,5.37
2019-03-06T12:26:54.518Z,3.75
2019-03-06T12:27:58.040Z,5.08
2019-03-06T12:29:01.455Z,2.90
2019-03-06T12:30:11.081Z,2.60
2019-03-06T12:31:14.615Z,2.72
2019-03-06T12:32:18.063Z,3.87
2019-03-06T12:33:24.086Z,2.05
2019-03-06T12:34:27.497Z,12.13
2019-03-06T12:35:30.947Z,23.05
2019-03-06T12:36:36.128Z,14.03
2019-03-06T12:37:46.710Z,16.62
2019-03-06T12:38:44.855Z,10.45
2019-03-06T12:39:48.455Z,5.40
2019-03-06T12:40:52.032Z,16.25
2019-03-06T12:41:55.555Z,12.23
2019-03-06T12:42:58.990Z,2.90
2019-03-06T12:44:10.215Z,8.15
2019-03-06T12:45:12.686Z,6.10
2019-03-06T12:46:23.629Z,3.37
2019-03-06T12:47:23.921Z,3.00
2019-03-06T12:48:27.366Z,3.90
2019-03-06T12:49:30.901Z,3.45
2019-03-06T12:50:39.255Z,3.00
2019-03-06T12:51:42.683Z,5.85
2019-03-06T12:52:46.266Z,8.80
2019-03-06T12:53:49.711Z,2.35
2019-03-06T12:54:53.206Z,9.18
2019-03-06T12:55:56.701Z,5.62
2019-03-06T12:57:00.203Z,6.15
2019-03-06T12:58:04.672Z,7.12
2019-03-06T12:59:08.340Z,2.05
2019-03-06T13:00:17.431Z,3.08
2019-03-06T13:01:21.436Z,3.98
2019-03-06T13:02:24.907Z,5.78
2019-03-06T13:03:28.422Z,7.37
2019-03-06T13:04:31.946Z,2.15
2019-03-06T13:05:35.495Z,2.85
2019-03-06T13:06:38.924Z,2.42
2019-03-06T13:07:42.417Z,2.60
2019-03-06T13:08:50.414Z,2.30
2019-03-06T13:09:51.155Z,3.50
2019-03-06T13:10:54.587Z,12.50
2019-03-06T13:11:58.237Z,4.37
2019-03-06T13:13:01.901Z,6.47
2019-03-06T13:14:05.665Z,4.20
2019-03-06T13:15:15.206Z,4.90
2019-03-06T13:16:18.784Z,3.45
2019-03-06T13:17:22.442Z,6.20
2019-03-06T13:18:25.939Z,5.58
2019-03-06T13:19:29.385Z,2.40
2019-03-06T13:20:32.879Z,4.42
2019-03-06T13:21:36.446Z,3.17
2019-03-06T13:22:40.304Z,8.98
2019-03-06T13:23:43.805Z,2.22
2019-03-06T13:24:47.417Z,5.78
2019-03-06T13:25:50.921Z,7.03
2019-03-06T13:26:54.348Z,20.17
2019-03-06T13:27:57.796Z,11.90
2019-03-06T13:29:01.556Z,6.35
2019-03-06T13:30:17.361Z,1.70
2019-03-06T13:31:21.090Z,9.95
2019-03-06T13:32:26.446Z,7.78
2019-03-06T13:33:34.056Z,6.65
2019-03-06T13:34:37.554Z,8.55
2019-03-06T13:35:41.142Z,3.47
2019-03-06T13:36:44.579Z,4.42
2019-03-06T13:37:48.006Z,8.65
2019-03-06T13:38:54.998Z,8.90
2019-03-06T13:39:56.658Z,5.08
2019-03-06T13:41:00.171Z,3.85
2019-03-06T13:42:03.838Z,4.78
2019-03-06T13:43:07.516Z,2.00
2019-03-06T13:44:10.943Z,6.28
2019-03-06T13:45:15.567Z,2.33
2019-03-06T13:46:19.157Z,4.58
2019-03-06T13:47:22.759Z,2.30
2019-03-06T13:48:26.179Z,4.58
2019-03-06T13:49:29.602Z,3.25
2019-03-06T13:50:33.182Z,2.75
2019-03-06T13:51:36.658Z,2.37
2019-03-06T13:52:40.163Z,5.75
2019-03-06T13:53:43.620Z,8.13
2019-03-06T13:54:47.043Z,8.88
2019-03-06T13:55:50.545Z,9.43
2019-03-06T13:56:54.042Z,6.78
2019-03-06T13:57:57.534Z,2.52
2019-03-06T13:59:00.952Z,5.42
2019-03-06T14:00:10.102Z,3.40
2019-03-06T14:01:14.372Z,2.70
2019-03-06T14:02:18.249Z,3.83
2019-03-06T14:03:21.824Z,3.50
2019-03-06T14:04:25.316Z,6.17
2019-03-06T14:05:28.886Z,4.22
2019-03-06T14:06:32.759Z,9.65
2019-03-06T14:07:36.206Z,4.70
2019-03-06T14:08:39.655Z,2.77
2019-03-06T14:09:43.157Z,10.53
2019-03-06T14:10:46.818Z,2.67
2019-03-06T14:11:50.383Z,4.47
2019-03-06T14:12:53.898Z,3.20
2019-03-06T14:13:57.423Z,6.92
2019-03-06T14:15:01.217Z,6.95
2019-03-06T14:16:05.462Z,6.97
2019-03-06T14:17:09.209Z,3.90
2019-03-06T14:18:13.289Z,3.92
2019-03-06T14:19:16.721Z,10.03
2019-03-06T14:20:24.259Z,5.50
2019-03-06T14:21:27.854Z,24.50
2019-03-06T14:22:31.443Z,25.82
2019-03-06T14:23:35.492Z,10.32
2019-03-06T14:24:39.127Z,6.47
2019-03-06T14:25:42.683Z,6.78
2019-03-06T14:26:46.185Z,11.20